Time;durP1;ratioP1;P1;durP2;ratioP2;P2;SDS_P1;SDS_P2;PMS_P1;PMS_P2;Temp;Humidity;BMP_temperature;BMP_pressure;BME280_temperature;BME280_humidity;BME280_pressure;Samples;Min_cycle;Max_cycle;Signal;HPM_P1;HPM_P2
2022/05/30 00:01:18;;;;;;;;;;;;;;;13.99;86.19;94602.09;5114780;28;987;-49
2022/05/30 00:03:44;;;;;;;;;;;;;;;14.13;85.98;94608.38;5114245;28;2001;-49
2022/05/30 00:06:12;;;;;;;;;;;;;;;14.18;85.83;94614.81;5127121;27;1153;-50
2022/05/30 00:08:38;;;;;;;;;;;;;;;14.27;86.03;94607.44;5135251;27;1007;-50
2022/05/30 00:11:06;;;;;;;;;;;;;;;14.38;84.29;94601.53;5135114;27;1032;-49
2022/05/30 00:13:32;;;;;;;;;;;;;;;14.14;84.26;94600.13;5135027;27;1526;-49
2022/05/30 00:16:02;;;;;;;;;;;;;;;14.24;84.65;94603.28;5135004;27;1033;-49
2022/05/30 00:18:28;;;;;;;;;;;;;;;14.22;84.99;94605.34;5134820;27;1273;-49
2022/05/30 00:20:54;;;;;;;;;;;;;;;14.10;85.84;94604.22;5134936;27;1078;-49
2022/05/30 00:23:20;;;;;;;;;;;;;;;13.79;86.01;94601.91;5134668;27;1918;-49
2022/05/30 00:25:47;;;;;;;;;;;;;;;13.72;85.80;94599.19;5133849;27;921;-49
2022/05/30 00:28:16;;;;;;;;;;;;;;;13.70;86.11;94603.94;5134773;27;1024;-50
2022/05/30 00:30:42;;;;;;;;;;;;;;;13.69;85.41;94607.63;5134854;27;1028;-49
2022/05/30 00:33:09;;;;;;;;;;;;;;;13.72;86.27;94611.81;5134900;27;1044;-49
2022/05/30 00:35:35;;;;;;;;;;;;;;;13.77;85.68;94609.34;5134870;27;1034;-49
2022/05/30 00:38:01;;;;;;;;;;;;;;;13.78;85.64;94611.00;5133609;27;1149;-49
2022/05/30 00:40:27;;;;;;;;;;;;;;;13.62;86.48;94606.72;5134525;27;1028;-49
2022/05/30 00:42:53;;;;;;;;;;;;;;;13.75;85.52;94612.22;5134393;27;1992;-49
2022/05/30 00:45:19;;;;;;;;;;;;;;;13.92;85.67;94612.75;5134347;27;1036;-49
2022/05/30 00:47:46;;;;;;;;;;;;;;;13.88;85.28;94613.38;5134551;27;979;-49
2022/05/30 00:50:13;;;;;;;;;;;;;;;13.56;84.83;94611.00;5134509;27;977;-49
2022/05/30 00:52:41;;;;;;;;;;;;;;;13.44;85.80;94624.13;5134556;27;1046;-49
2022/05/30 00:55:18;;;;;;;;;;;;;;;13.32;85.60;94627.50;5134400;27;1011;-49
2022/05/30 00:57:46;;;;;;;;;;;;;;;13.12;86.42;94628.09;5134496;27;1038;-49
2022/05/30 01:00:14;;;;;;;;;;;;;;;13.13;85.64;94627.09;5134562;27;1052;-49
2022/05/30 01:02:41;;;;;;;;;;;;;;;13.33;85.89;94629.19;5134346;27;1905;-49
2022/05/30 01:07:53;;;;;;;;;;;;;;;13.27;85.21;94620.00;5113903;28;1034;-49
2022/05/30 01:10:21;;;;;;;;;;;;;;;13.30;85.43;94627.72;5113752;28;1056;-49
2022/05/30 01:12:49;;;;;;;;;;;;;;;13.08;86.34;94629.50;5113825;28;968;-49
2022/05/30 01:15:17;;;;;;;;;;;;;;;13.08;85.47;94627.66;5114446;28;1036;-49
2022/05/30 01:17:49;;;;;;;;;;;;;;;13.22;85.36;94630.47;5117708;28;1123;-50
2022/05/30 01:20:35;;;;;;;;;;;;;;;13.32;85.35;94628.38;5117921;28;1183;-49
2022/05/30 01:23:21;;;;;;;;;;;;;;;13.09;84.20;94633.88;5118006;28;1905;-50
2022/05/30 01:26:06;;;;;;;;;;;;;;;13.01;84.35;94628.59;5116598;28;1075;-49
2022/05/30 01:28:39;;;;;;;;;;;;;;;13.18;84.65;94631.88;5117589;28;968;-49
2022/05/30 01:31:05;;;;;;;;;;;;;;;13.24;85.34;94633.81;5117749;28;1007;-49
2022/05/30 01:33:32;;;;;;;;;;;;;;;13.26;85.47;94629.06;5117564;28;1047;-49
2022/05/30 01:35:58;;;;;;;;;;;;;;;13.19;84.71;94636.25;5117654;28;1024;-49
2022/05/30 01:38:24;;;;;;;;;;;;;;;13.17;85.08;94632.91;5117283;28;1099;-49
2022/05/30 01:40:51;;;;;;;;;;;;;;;13.13;85.00;94639.66;5116401;28;1107;-49
2022/05/30 01:43:17;;;;;;;;;;;;;;;12.99;85.15;94634.16;5117261;28;1945;-49
2022/05/30 01:45:43;;;;;;;;;;;;;;;13.03;85.19;94630.09;5116935;28;1039;-49
2022/05/30 01:48:09;;;;;;;;;;;;;;;13.03;85.23;94629.22;5117435;28;1031;-49
2022/05/30 01:50:36;;;;;;;;;;;;;;;13.06;85.07;94635.06;5116189;28;1086;-49
2022/05/30 01:53:02;;;;;;;;;;;;;;;12.92;84.43;94644.00;5117417;28;1015;-50
2022/05/30 01:55:28;;;;;;;;;;;;;;;12.89;84.48;94650.53;5117240;28;1031;-49
2022/05/30 01:57:54;;;;;;;;;;;;;;;12.84;85.13;94654.81;5117401;28;1031;-49
2022/05/30 02:00:20;;;;;;;;;;;;;;;12.63;84.94;94651.03;5117028;28;1008;-49
2022/05/30 02:02:47;;;;;;;;;;;;;;;12.63;84.84;94647.53;5116806;28;1996;-49
2022/05/30 02:05:13;;;;;;;;;;;;;;;12.68;85.20;94651.31;5121129;27;1204;-49
2022/05/30 02:07:39;;;;;;;;;;;;;;;12.70;85.13;94651.94;5137841;27;975;-49
2022/05/30 02:10:06;;;;;;;;;;;;;;;12.72;85.59;94646.41;5137311;27;1107;-50
2022/05/30 02:12:32;;;;;;;;;;;;;;;12.85;86.00;94659.16;5137576;27;964;-49
2022/05/30 02:14:59;;;;;;;;;;;;;;;12.84;85.23;94657.50;5137498;27;1058;-50
2022/05/30 02:17:25;;;;;;;;;;;;;;;12.59;84.93;94659.66;5137323;27;1111;-50
2022/05/30 02:19:51;;;;;;;;;;;;;;;12.37;84.48;94656.88;5137196;27;997;-49
2022/05/30 02:22:20;;;;;;;;;;;;;;;12.42;85.33;94657.13;5137637;27;956;-49
2022/05/30 02:24:48;;;;;;;;;;;;;;;12.61;84.84;94661.09;5137170;27;1039;-50
2022/05/30 02:27:16;;;;;;;;;;;;;;;12.64;84.78;94655.38;5136882;27;1072;-50
2022/05/30 02:29:43;;;;;;;;;;;;;;;12.62;84.36;94660.09;5135536;27;1028;-50
2022/05/30 02:32:09;;;;;;;;;;;;;;;12.34;86.27;94659.91;5137417;27;1055;-50
2022/05/30 02:37:20;;;;;;;;;;;;;;;12.50;86.38;94665.09;5137181;27;1035;-50
2022/05/30 02:39:46;;;;;;;;;;;;;;;12.41;86.14;94668.91;5136857;27;1044;-50
2022/05/30 02:42:13;;;;;;;;;;;;;;;12.47;85.15;94667.31;5136934;27;1020;-50
2022/05/30 02:44:39;;;;;;;;;;;;;;;12.51;83.99;94679.34;5135174;27;1993;-50
2022/05/30 02:47:05;;;;;;;;;;;;;;;12.26;84.87;94684.97;5135642;27;1104;-50
2022/05/30 02:49:31;;;;;;;;;;;;;;;12.34;85.56;94688.56;5136563;27;1855;-49
2022/05/30 02:51:57;;;;;;;;;;;;;;;12.56;85.14;94686.81;5136669;27;1016;-50
2022/05/30 02:54:24;;;;;;;;;;;;;;;12.56;85.18;94685.00;5136203;27;1098;-50
2022/05/30 02:56:51;;;;;;;;;;;;;;;12.38;84.19;94685.34;5136691;27;1130;-50
2022/05/30 02:59:18;;;;;;;;;;;;;;;12.36;84.23;94697.25;5135139;27;1079;-50
2022/05/30 03:01:44;;;;;;;;;;;;;;;12.29;84.66;94700.69;5136645;27;991;-49
2022/05/30 03:04:11;;;;;;;;;;;;;;;12.26;85.44;94705.56;5136298;27;1905;-50
2022/05/30 03:06:37;;;;;;;;;;;;;;;12.30;84.79;94712.22;5120115;27;1210;-49
2022/05/30 03:09:05;;;;;;;;;;;;;;;12.03;85.34;94719.03;5116112;28;1024;-50
2022/05/30 03:11:32;;;;;;;;;;;;;;;12.09;86.09;94719.13;5115912;28;1051;-50
2022/05/30 03:13:58;;;;;;;;;;;;;;;12.22;86.27;94717.69;5115599;28;1016;-50
2022/05/30 03:16:25;;;;;;;;;;;;;;;12.33;85.33;94727.97;5115816;28;1083;-50
2022/05/30 03:18:51;;;;;;;;;;;;;;;12.06;85.16;94730.19;5114351;28;1405;-49
2022/05/30 03:21:17;;;;;;;;;;;;;;;11.96;85.40;94737.66;5115977;28;1035;-49
2022/05/30 03:23:43;;;;;;;;;;;;;;;12.05;86.15;94733.06;5115567;28;2000;-50
2022/05/30 03:26:09;;;;;;;;;;;;;;;12.25;85.61;94733.38;5115263;28;1012;-50
2022/05/30 03:28:36;;;;;;;;;;;;;;;12.51;85.20;94743.69;5115243;28;1865;-50
2022/05/30 03:31:03;;;;;;;;;;;;;;;12.70;85.06;94748.50;5115590;28;965;-50
2022/05/30 03:33:29;;;;;;;;;;;;;;;12.79;84.96;94745.75;5115561;28;1040;-50
2022/05/30 03:35:55;;;;;;;;;;;;;;;12.92;84.06;94751.31;5115203;28;1182;-50
2022/05/30 03:38:21;;;;;;;;;;;;;;;12.77;85.12;94761.22;5114706;28;1881;-50
2022/05/30 03:40:48;;;;;;;;;;;;;;;12.74;85.68;94759.72;5113576;28;1036;-50
2022/05/30 03:43:14;;;;;;;;;;;;;;;12.85;85.59;94763.78;5114968;28;2040;-50
2022/05/30 03:45:42;;;;;;;;;;;;;;;12.87;85.08;94764.44;5114834;28;1125;-49
2022/05/30 03:48:09;;;;;;;;;;;;;;;12.89;85.67;94771.28;5115044;28;1954;-49
2022/05/30 03:50:36;;;;;;;;;;;;;;;13.01;85.89;94774.34;5114729;28;1067;-49
2022/05/30 03:53:05;;;;;;;;;;;;;;;13.09;85.93;94779.63;5115120;28;954;-49
2022/05/30 03:55:34;;;;;;;;;;;;;;;13.19;85.40;94778.50;5114382;28;1079;-49
2022/05/30 03:58:02;;;;;;;;;;;;;;;13.35;85.12;94782.88;5115039;28;1000;-49
2022/05/30 04:00:29;;;;;;;;;;;;;;;13.37;85.67;94783.50;5114609;27;1015;-49
2022/05/30 04:02:55;;;;;;;;;;;;;;;13.40;85.71;94785.84;5114725;28;1997;-49
2022/05/30 04:05:21;;;;;;;;;;;;;;;13.52;85.90;94786.19;5119904;27;1157;-49
2022/05/30 04:07:47;;;;;;;;;;;;;;;13.69;85.89;94787.63;5134070;27;941;-50
2022/05/30 04:10:14;;;;;;;;;;;;;;;13.87;85.95;94787.22;5135023;27;1101;-49
2022/05/30 04:12:40;;;;;;;;;;;;;;;13.90;85.25;94792.19;5135254;27;976;-50
2022/05/30 04:15:08;;;;;;;;;;;;;;;14.10;85.76;94794.28;5135065;27;1015;-49
2022/05/30 04:17:35;;;;;;;;;;;;;;;14.40;84.94;94805.72;5134775;27;1241;-50
2022/05/30 04:20:03;;;;;;;;;;;;;;;14.60;84.23;94808.59;5135098;27;1052;-50
2022/05/30 04:22:29;;;;;;;;;;;;;;;14.84;83.48;94807.34;5134633;27;1913;-50
2022/05/30 04:24:55;;;;;;;;;;;;;;;14.80;83.68;94806.91;5134670;27;1028;-49
2022/05/30 04:27:22;;;;;;;;;;;;;;;14.49;83.59;94826.06;5134626;27;1079;-49
2022/05/30 04:29:49;;;;;;;;;;;;;;;14.47;84.98;94821.91;5135039;27;1022;-50
2022/05/30 04:32:16;;;;;;;;;;;;;;;14.27;85.67;94817.19;5135020;27;1142;-50
2022/05/30 04:34:43;;;;;;;;;;;;;;;13.93;86.87;94824.06;5134928;27;953;-50
2022/05/30 04:37:09;;;;;;;;;;;;;;;13.78;87.55;94832.16;5135145;27;968;-50
2022/05/30 04:39:35;;;;;;;;;;;;;;;13.72;89.09;94832.91;5134495;27;1012;-49
2022/05/30 04:42:02;;;;;;;;;;;;;;;13.71;89.63;94833.09;5134387;27;1024;-50
2022/05/30 04:44:28;;;;;;;;;;;;;;;13.75;88.80;94827.16;5134643;27;1905;-50
2022/05/30 04:46:55;;;;;;;;;;;;;;;13.96;89.28;94829.06;5134515;27;1044;-49
2022/05/30 04:49:21;;;;;;;;;;;;;;;14.40;87.65;94838.00;5133672;27;961;-50
2022/05/30 04:51:48;;;;;;;;;;;;;;;14.48;85.66;94840.56;5133126;27;961;-49
2022/05/30 04:54:14;;;;;;;;;;;;;;;14.37;85.46;94846.44;5134210;27;1015;-50
2022/05/30 04:56:40;;;;;;;;;;;;;;;14.31;87.19;94848.03;5134087;27;1012;-50
2022/05/30 04:59:07;;;;;;;;;;;;;;;14.49;86.82;94836.81;5134407;27;987;-49
2022/05/30 05:01:34;;;;;;;;;;;;;;;14.75;85.28;94846.19;5133212;27;1059;-49
2022/05/30 05:04:00;;;;;;;;;;;;;;;15.02;85.38;94845.38;5134286;27;1902;-49
2022/05/30 05:06:26;;;;;;;;;;;;;;;15.21;84.61;94848.41;5119401;27;1156;-49
2022/05/30 05:08:55;;;;;;;;;;;;;;;15.10;85.17;94852.47;5112753;28;995;-50
2022/05/30 05:11:23;;;;;;;;;;;;;;;15.26;84.93;94856.72;5113617;28;1020;-50
2022/05/30 05:13:49;;;;;;;;;;;;;;;15.50;84.42;94857.25;5113870;28;1011;-50
2022/05/30 05:16:16;;;;;;;;;;;;;;;15.39;83.94;94856.81;5113462;28;1024;-50
2022/05/30 05:18:43;;;;;;;;;;;;;;;16.11;81.61;94864.66;5113424;28;1067;-50
2022/05/30 05:21:15;;;;;;;;;;;;;;;16.37;80.76;94866.56;5113561;28;1131;-50
2022/05/30 05:23:41;;;;;;;;;;;;;;;16.66;79.26;94861.88;5113460;28;1910;-50
2022/05/30 05:26:08;;;;;;;;;;;;;;;17.10;76.96;94863.97;5112479;28;938;-50
2022/05/30 05:28:34;;;;;;;;;;;;;;;16.30;79.35;94865.75;5113876;28;1083;-50
2022/05/30 05:31:01;;;;;;;;;;;;;;;16.39;80.23;94868.03;5113551;28;1120;-50
2022/05/30 05:33:27;;;;;;;;;;;;;;;16.48;78.92;94859.75;5113523;28;1036;-50
2022/05/30 05:35:53;;;;;;;;;;;;;;;16.55;79.02;94864.13;5113452;28;1103;-50
2022/05/30 05:38:19;;;;;;;;;;;;;;;16.58;78.64;94863.72;5113610;28;1047;-50
2022/05/30 05:40:45;;;;;;;;;;;;;;;16.89;79.08;94856.09;5113646;28;1063;-50
2022/05/30 05:43:12;;;;;;;;;;;;;;;17.06;77.28;94859.22;5113242;28;1914;-50
2022/05/30 05:45:40;;;;;;;;;;;;;;;17.00;76.35;94863.56;5113443;28;976;-50
2022/05/30 05:48:06;;;;;;;;;;;;;;;17.03;76.69;94860.44;5113595;28;1051;-50
2022/05/30 05:50:33;;;;;;;;;;;;;;;17.28;76.82;94860.66;5113569;28;1030;-50
2022/05/30 05:52:59;;;;;;;;;;;;;;;17.49;76.69;94861.41;5113468;28;968;-50
2022/05/30 05:55:25;;;;;;;;;;;;;;;17.71;76.47;94859.31;5113293;28;1021;-50
2022/05/30 05:57:52;;;;;;;;;;;;;;;17.84;75.11;94871.97;5112071;28;1016;-50
2022/05/30 06:00:18;;;;;;;;;;;;;;;18.02;76.32;94866.72;5112160;28;948;-50
2022/05/30 06:02:44;;;;;;;;;;;;;;;18.22;73.83;94882.03;5114706;28;1909;-50
2022/05/30 06:05:10;;;;;;;;;;;;;;;18.43;74.67;94883.59;5120958;27;1160;-50
2022/05/30 06:07:38;;;;;;;;;;;;;;;18.52;72.90;94882.31;5137398;27;1087;-50
2022/05/30 06:10:04;;;;;;;;;;;;;;;18.49;73.31;94872.72;5137882;27;1051;-50
2022/05/30 06:12:33;;;;;;;;;;;;;;;18.44;73.42;94875.28;5136008;27;2500;-50
2022/05/30 06:15:00;;;;;;;;;;;;;;;18.59;74.15;94879.53;5137376;27;1054;-50
2022/05/30 06:17:26;;;;;;;;;;;;;;;18.74;72.06;94880.06;5137106;27;1084;-51
2022/05/30 06:19:52;;;;;;;;;;;;;;;18.63;71.87;94878.91;5137317;27;1111;-51
2022/05/30 06:22:18;;;;;;;;;;;;;;;18.64;73.69;94882.44;5137667;27;972;-51
2022/05/30 06:24:44;;;;;;;;;;;;;;;18.81;73.62;94886.31;5137007;27;1988;-50
2022/05/30 06:27:15;;;;;;;;;;;;;;;18.97;73.73;94878.69;5135914;27;1000;-51
2022/05/30 06:29:42;;;;;;;;;;;;;;;19.06;73.26;94880.91;5136983;27;1087;-51
2022/05/30 06:32:08;;;;;;;;;;;;;;;19.34;71.74;94871.50;5137439;27;959;-51
2022/05/30 06:34:34;;;;;;;;;;;;;;;19.46;70.92;94868.91;5136774;27;1031;-50
2022/05/30 06:37:00;;;;;;;;;;;;;;;19.51;71.76;94871.78;5137088;27;1110;-50
2022/05/30 06:39:27;;;;;;;;;;;;;;;19.68;70.36;94869.31;5136789;27;992;-50
2022/05/30 06:41:53;;;;;;;;;;;;;;;19.56;70.51;94877.38;5137010;27;1032;-50
2022/05/30 06:44:20;;;;;;;;;;;;;;;19.68;70.35;94875.56;5136668;27;1901;-50
2022/05/30 06:46:46;;;;;;;;;;;;;;;19.88;71.38;94878.09;5136706;27;1016;-50
2022/05/30 06:49:12;;;;;;;;;;;;;;;20.10;69.60;94872.22;5136567;27;1008;-50
2022/05/30 06:51:39;;;;;;;;;;;;;;;20.13;71.31;94881.75;5136948;27;1019;-50
2022/05/30 06:54:06;;;;;;;;;;;;;;;20.01;69.87;94877.09;5136553;27;1050;-50
2022/05/30 06:56:34;;;;;;;;;;;;;;;20.00;72.41;94872.75;5136907;27;1028;-51
2022/05/30 06:59:00;;;;;;;;;;;;;;;20.21;69.36;94879.59;5136645;27;1034;-50
2022/05/30 07:01:28;;;;;;;;;;;;;;;20.26;71.14;94876.19;5135623;27;1039;-51
2022/05/30 07:03:54;;;;;;;;;;;;;;;20.23;71.16;94871.22;5136174;27;1910;-50
2022/05/30 07:06:25;;;;;;;;;;;;;;;20.08;70.73;94867.00;5136692;27;1160;-50
2022/05/30 07:08:51;;;;;;;;;;;;;;;20.29;71.24;94879.25;5136506;27;965;-50
2022/05/30 07:11:18;;;;;;;;;;;;;;;20.39;70.55;94869.75;5135334;27;980;-50
2022/05/30 07:13:44;;;;;;;;;;;;;;;20.83;70.41;94867.69;5136238;27;1048;-50
2022/05/30 07:16:10;;;;;;;;;;;;;;;21.10;68.92;94870.84;5136308;27;1132;-50
2022/05/30 07:18:37;;;;;;;;;;;;;;;21.01;69.62;94870.34;5134553;27;1440;-50
2022/05/30 07:21:04;;;;;;;;;;;;;;;21.05;70.86;94868.00;5136585;27;1131;-50
2022/05/30 07:23:31;;;;;;;;;;;;;;;21.23;70.73;94865.19;5135943;27;1905;-50
2022/05/30 07:25:58;;;;;;;;;;;;;;;21.42;69.28;94857.75;5136101;27;1055;-50
2022/05/30 07:28:25;;;;;;;;;;;;;;;21.59;67.93;94866.06;5136179;27;956;-50
2022/05/30 07:30:51;;;;;;;;;;;;;;;21.70;69.11;94874.47;5135868;27;1028;-51
2022/05/30 07:33:17;;;;;;;;;;;;;;;21.64;68.60;94868.06;5136211;27;1020;-50
2022/05/30 07:35:43;;;;;;;;;;;;;;;21.76;67.71;94876.22;5135930;27;999;-51
2022/05/30 07:38:10;;;;;;;;;;;;;;;21.73;66.10;94869.38;5134829;27;1055;-51
2022/05/30 07:40:36;;;;;;;;;;;;;;;21.88;66.75;94866.16;5135705;27;1016;-50
2022/05/30 07:43:02;;;;;;;;;;;;;;;21.95;68.31;94869.59;5135940;27;2010;-50
2022/05/30 07:45:28;;;;;;;;;;;;;;;22.02;67.48;94873.03;5135418;27;1051;-51
2022/05/30 07:47:54;;;;;;;;;;;;;;;22.11;67.59;94870.75;5135950;27;1010;-51
2022/05/30 07:50:20;;;;;;;;;;;;;;;22.16;66.06;94868.13;5135424;27;995;-51
2022/05/30 07:52:46;;;;;;;;;;;;;;;22.33;64.98;94870.97;5134631;27;953;-50
2022/05/30 07:55:13;;;;;;;;;;;;;;;22.46;65.39;94882.63;5135147;27;1071;-51
2022/05/30 07:57:51;;;;;;;;;;;;;;;22.54;63.59;94868.66;5135591;27;955;-51
2022/05/30 08:00:18;;;;;;;;;;;;;;;22.65;62.85;94873.22;5135261;27;1032;-51
2022/05/30 08:02:44;;;;;;;;;;;;;;;22.71;62.18;94874.13;5135260;27;1909;-51
2022/05/30 08:05:11;;;;;;;;;;;;;;;22.87;63.60;94875.25;5135435;27;1153;-51
2022/05/30 08:07:39;;;;;;;;;;;;;;;22.92;62.45;94878.91;5135178;27;1086;-51
2022/05/30 08:10:06;;;;;;;;;;;;;;;23.10;64.52;94875.16;5135171;27;1063;-51
2022/05/30 08:12:32;;;;;;;;;;;;;;;23.32;63.29;94874.44;5135311;27;1022;-51
2022/05/30 08:14:59;;;;;;;;;;;;;;;23.37;59.30;94871.75;5135275;27;1018;-51
2022/05/30 08:17:25;;;;;;;;;;;;;;;23.50;60.96;94876.88;5135052;27;1221;-51
2022/05/30 08:19:51;;;;;;;;;;;;;;;23.59;60.59;94880.84;5133668;27;1099;-50
2022/05/30 08:22:18;;;;;;;;;;;;;;;23.49;57.55;94875.25;5135264;27;1051;-51
2022/05/30 08:24:47;;;;;;;;;;;;;;;23.41;58.38;94881.13;5134277;27;1909;-51
2022/05/30 08:27:14;;;;;;;;;;;;;;;23.50;59.13;94881.53;5134833;27;1066;-51
2022/05/30 08:29:42;;;;;;;;;;;;;;;23.56;58.43;94881.38;5135277;27;943;-51
2022/05/30 08:32:09;;;;;;;;;;;;;;;23.76;58.66;94869.09;5134970;27;1031;-51
2022/05/30 08:34:35;;;;;;;;;;;;;;;23.87;54.85;94872.84;5134725;27;1041;-51
2022/05/30 08:37:02;;;;;;;;;;;;;;;23.66;52.38;94867.06;5134624;27;1044;-50
2022/05/30 08:42:22;;;;;;;;;;;;;;;23.70;53.66;94873.66;5134847;27;956;-51
2022/05/30 08:44:49;;;;;;;;;;;;;;;23.67;56.58;94871.41;5134587;27;1914;-50
2022/05/30 08:47:24;;;;;;;;;;;;;;;23.94;58.70;94871.59;5134672;27;1031;-51
2022/05/30 08:49:52;;;;;;;;;;;;;;;24.10;57.67;94869.06;5134675;27;957;-51
2022/05/30 08:52:46;;;;;;;;;;;;;;;24.07;58.86;94875.03;5134677;27;1024;-51
2022/05/30 08:55:18;;;;;;;;;;;;;;;24.09;53.82;94872.84;5134382;27;963;-51
2022/05/30 08:57:50;;;;;;;;;;;;;;;24.02;55.99;94872.22;5134288;27;1071;-51
2022/05/30 09:00:25;;;;;;;;;;;;;;;24.11;56.76;94870.69;5134477;27;980;-51
2022/05/30 09:02:55;;;;;;;;;;;;;;;24.09;54.57;94865.50;5134283;27;1918;-51
2022/05/30 09:05:31;;;;;;;;;;;;;;;24.00;54.00;94868.91;5129045;27;1164;-51
2022/05/30 09:08:01;;;;;;;;;;;;;;;24.06;54.87;94865.19;5113799;28;1079;-51
2022/05/30 09:10:30;;;;;;;;;;;;;;;24.29;56.78;94875.88;5114025;28;949;-51
2022/05/30 09:13:13;;;;;;;;;;;;;;;24.46;57.78;94873.06;5114025;28;968;-51
2022/05/30 09:15:44;;;;;;;;;;;;;;;24.46;55.69;94870.34;5113495;28;1083;-51
2022/05/30 09:18:15;;;;;;;;;;;;;;;24.48;55.86;94872.81;5113511;28;1400;-51
2022/05/30 09:20:41;;;;;;;;;;;;;;;24.54;56.33;94874.56;5113572;28;977;-50
2022/05/30 09:23:08;;;;;;;;;;;;;;;24.61;55.12;94872.47;5113654;28;1984;-51
2022/05/30 09:26:07;;;;;;;;;;;;;;;24.73;55.00;94870.38;5112129;28;1035;-51
2022/05/30 09:28:35;;;;;;;;;;;;;;;24.72;53.59;94874.22;5113560;28;1115;-51
2022/05/30 09:31:04;;;;;;;;;;;;;;;24.69;56.64;94873.91;5113559;28;1043;-51
2022/05/30 09:33:32;;;;;;;;;;;;;;;24.64;56.10;94877.38;5113612;28;1043;-51
2022/05/30 09:36:12;;;;;;;;;;;;;;;24.72;56.07;94882.44;5113376;28;1008;-51
2022/05/30 09:38:45;;;;;;;;;;;;;;;24.72;53.41;94876.13;5116508;28;1043;-51
2022/05/30 09:41:20;;;;;;;;;;;;;;;24.77;56.22;94880.81;5117590;28;1036;-51
2022/05/30 09:43:55;;;;;;;;;;;;;;;24.88;56.30;94877.13;5117444;28;1914;-51
2022/05/30 09:46:24;;;;;;;;;;;;;;;24.80;56.28;94877.59;5117405;28;1044;-51
2022/05/30 09:49:01;;;;;;;;;;;;;;;24.89;56.00;94876.88;5117340;28;1044;-51
2022/05/30 09:51:30;;;;;;;;;;;;;;;24.92;51.95;94878.25;5116759;28;1027;-51
2022/05/30 09:53:56;;;;;;;;;;;;;;;24.92;54.59;94872.78;5117315;28;968;-51
2022/05/30 09:56:23;;;;;;;;;;;;;;;25.09;53.67;94870.75;5117299;28;1023;-51
2022/05/30 09:59:09;;;;;;;;;;;;;;;25.18;53.56;94876.59;5117598;28;965;-50
2022/05/30 10:01:36;;;;;;;;;;;;;;;25.20;55.04;94868.94;5116787;28;1129;-50
2022/05/30 10:04:21;;;;;;;;;;;;;;;25.18;53.23;94868.38;5117104;28;1965;-51
2022/05/30 10:07:01;;;;;;;;;;;;;;;25.20;53.04;94868.94;5133487;27;1173;-51
2022/05/30 10:09:27;;;;;;;;;;;;;;;25.21;51.74;94870.63;5137910;27;1044;-51
2022/05/30 10:11:55;;;;;;;;;;;;;;;25.20;53.14;94873.59;5136292;27;1035;-51
2022/05/30 10:14:25;;;;;;;;;;;;;;;25.06;51.16;94871.28;5137761;27;1024;-51
2022/05/30 10:16:55;;;;;;;;;;;;;;;25.25;53.74;94868.19;5137406;27;1123;-51
2022/05/30 10:19:30;;;;;;;;;;;;;;;25.36;50.62;94869.13;5137496;27;1110;-51
2022/05/30 10:28:16;;;;;;;;;;;;;;;25.34;48.60;94866.63;5116465;27;1100;-52
2022/05/30 10:30:44;;;;;;;;;;;;;;;25.19;50.02;94870.03;5137404;27;1028;-51
2022/05/30 10:33:22;;;;;;;;;;;;;;;25.12;47.21;94864.78;5137249;27;1028;-51
2022/05/30 10:36:03;;;;;;;;;;;;;;;25.23;46.40;94859.41;5137448;27;991;-51
2022/05/30 10:38:33;;;;;;;;;;;;;;;25.29;46.23;94859.22;5137102;27;1034;-51
2022/05/30 10:41:11;;;;;;;;;;;;;;;25.50;49.49;94870.34;5137019;27;975;-51
2022/05/30 10:43:41;;;;;;;;;;;;;;;25.71;49.90;94860.34;5136965;27;1914;-51
2022/05/30 10:46:12;;;;;;;;;;;;;;;25.73;48.02;94862.84;5137228;27;959;-51
2022/05/30 10:48:40;;;;;;;;;;;;;;;25.66;48.28;94874.00;5136069;27;1039;-51
2022/05/30 10:51:10;;;;;;;;;;;;;;;25.49;47.16;94861.28;5136843;27;1067;-51
2022/05/30 10:53:57;;;;;;;;;;;;;;;25.50;48.58;94871.16;5136283;27;1007;-51
2022/05/30 10:56:28;;;;;;;;;;;;;;;25.58;48.52;94863.56;5136756;27;1060;-51
2022/05/30 10:59:13;;;;;;;;;;;;;;;25.62;44.72;94859.19;5136795;27;1040;-51
2022/05/30 11:01:48;;;;;;;;;;;;;;;25.59;45.61;94862.44;5136520;27;1028;-51
2022/05/30 11:04:33;;;;;;;;;;;;;;;25.77;48.72;94853.81;5136571;27;1894;-51
2022/05/30 11:07:15;;;;;;;;;;;;;;;25.83;45.04;94858.22;5117168;27;1152;-51
2022/05/30 11:09:50;;;;;;;;;;;;;;;25.82;46.53;94851.13;5115727;28;1193;-51
2022/05/30 11:12:20;;;;;;;;;;;;;;;25.75;47.37;94856.00;5115913;28;1036;-51
2022/05/30 11:15:05;;;;;;;;;;;;;;;25.67;46.80;94851.84;5115722;28;1044;-50
2022/05/30 11:17:36;;;;;;;;;;;;;;;25.66;45.40;94861.13;5115522;28;1277;-51
2022/05/30 11:20:21;;;;;;;;;;;;;;;25.74;48.49;94843.38;5115720;28;2029;-51
2022/05/30 11:22:48;;;;;;;;;;;;;;;25.76;44.90;94849.41;5115476;28;1910;-51
2022/05/30 11:25:16;;;;;;;;;;;;;;;25.82;46.78;94844.81;5115518;28;1127;-51
2022/05/30 11:27:50;;;;;;;;;;;;;;;25.83;42.67;94849.19;5115612;28;987;-51
2022/05/30 11:30:32;;;;;;;;;;;;;;;25.93;44.89;94846.53;5114330;28;1023;-51
2022/05/30 11:32:58;;;;;;;;;;;;;;;26.01;43.96;94848.81;5115301;28;1052;-51
2022/05/30 11:35:34;;;;;;;;;;;;;;;26.01;44.12;94839.75;5115262;28;1053;-50
2022/05/30 11:38:00;;;;;;;;;;;;;;;26.04;44.17;94842.78;5115500;28;999;-51
2022/05/30 11:40:32;;;;;;;;;;;;;;;26.08;47.27;94840.31;5115054;28;1020;-51
2022/05/30 11:43:01;;;;;;;;;;;;;;;26.01;43.68;94835.09;5115024;28;1914;-51
2022/05/30 11:45:36;;;;;;;;;;;;;;;26.05;46.26;94832.66;5115227;28;967;-51
2022/05/30 11:48:07;;;;;;;;;;;;;;;26.11;46.91;94831.59;5115264;28;1002;-51
2022/05/30 11:50:40;;;;;;;;;;;;;;;26.10;45.91;94832.66;5115412;28;999;-51
2022/05/30 11:53:09;;;;;;;;;;;;;;;26.11;45.13;94834.34;5115487;28;1031;-51
2022/05/30 11:55:41;;;;;;;;;;;;;;;26.08;44.07;94835.66;5114752;28;969;-51
2022/05/30 11:58:26;;;;;;;;;;;;;;;26.05;44.81;94836.22;5114810;28;1091;-50
2022/05/30 12:00:53;;;;;;;;;;;;;;;26.06;43.24;94837.84;5114305;28;941;-51
2022/05/30 12:03:32;;;;;;;;;;;;;;;26.13;45.84;94834.06;5114780;28;1905;-51
2022/05/30 12:05:58;;;;;;;;;;;;;;;26.19;45.23;94833.81;5125221;27;1192;-51
2022/05/30 12:08:35;;;;;;;;;;;;;;;26.21;44.91;94839.84;5135464;27;948;-51
2022/05/30 12:11:01;;;;;;;;;;;;;;;26.24;44.01;94839.31;5134030;27;901;-51
2022/05/30 12:13:33;;;;;;;;;;;;;;;26.33;44.30;94847.84;5135132;27;988;-51
2022/05/30 12:16:11;;;;;;;;;;;;;;;26.28;43.10;94837.69;5135096;27;1083;-51
2022/05/30 12:24:30;;;;;;;;;;;;;;;26.25;41.81;94843.69;5134676;27;1971;-51
2022/05/30 12:26:58;;;;;;;;;;;;;;;26.36;43.14;94843.75;5135030;27;1066;-51
2022/05/30 12:29:40;;;;;;;;;;;;;;;26.38;42.77;94841.56;5134709;27;1051;-51
2022/05/30 12:32:09;;;;;;;;;;;;;;;26.44;46.77;94840.50;5133838;27;912;-51
2022/05/30 12:34:54;;;;;;;;;;;;;;;26.47;43.26;94840.78;5134545;27;997;-51
2022/05/30 12:37:41;;;;;;;;;;;;;;;26.53;45.36;94838.06;5134993;27;1047;-51
2022/05/30 12:40:11;;;;;;;;;;;;;;;26.54;45.51;94839.69;5134498;27;1008;-51
2022/05/30 12:42:43;;;;;;;;;;;;;;;26.60;43.65;94836.75;5134856;27;1044;-51
2022/05/30 12:45:14;;;;;;;;;;;;;;;26.58;43.68;94835.31;5134849;27;1039;-51
2022/05/30 12:47:47;;;;;;;;;;;;;;;26.62;43.72;94840.03;5134517;27;1063;-51
2022/05/30 12:50:26;;;;;;;;;;;;;;;26.70;44.12;94838.69;5134448;27;1019;-51
2022/05/30 12:52:54;;;;;;;;;;;;;;;26.66;43.97;94838.41;5134350;27;1100;-49
2022/05/30 12:55:35;;;;;;;;;;;;;;;26.69;43.38;94831.53;5134114;27;1075;-48
2022/05/30 12:58:02;;;;;;;;;;;;;;;26.75;45.87;94841.47;5134441;27;1940;-48
2022/05/30 13:00:40;;;;;;;;;;;;;;;26.71;43.39;94834.84;5134164;27;1049;-48
2022/05/30 13:03:24;;;;;;;;;;;;;;;26.63;42.67;94836.19;5134462;27;1909;-48
2022/05/30 13:06:11;;;;;;;;;;;;;;;26.38;44.49;94836.09;5124950;27;1152;-48
2022/05/30 13:08:57;;;;;;;;;;;;;;;26.30;42.85;94829.22;5113952;28;1018;-48
2022/05/30 13:11:33;;;;;;;;;;;;;;;26.02;45.03;94825.78;5113485;28;1083;-48
2022/05/30 13:14:11;;;;;;;;;;;;;;;25.92;44.50;94824.94;5113964;28;1036;-48
2022/05/30 13:16:41;;;;;;;;;;;;;;;25.79;46.14;94828.91;5113823;28;956;-48
2022/05/30 13:19:12;;;;;;;;;;;;;;;25.71;44.90;94827.50;5113659;28;1032;-48
2022/05/30 13:21:39;;;;;;;;;;;;;;;25.65;46.83;94823.06;5113823;28;972;-48
2022/05/30 13:24:43;;;;;;;;;;;;;;;25.60;47.04;94831.25;5113238;28;1905;-48
2022/05/30 13:27:11;;;;;;;;;;;;;;;25.64;48.75;94832.38;5091002;28;1415;-48
2022/05/30 13:29:42;;;;;;;;;;;;;;;25.67;46.96;94832.69;5090770;28;1010;-49
2022/05/30 13:32:13;;;;;;;;;;;;;;;25.77;46.02;94833.84;5102647;28;1071;-49